Time;durP1;ratioP1;P1;durP2;ratioP2;P2;SDS_P1;SDS_P2;PMS_P1;PMS_P2;Temp;Humidity;BMP_temperature;BMP_pressure;BME280_temperature;BME280_humidity;BME280_pressure;Samples;Min_cycle;Max_cycle;Signal;HPM_P1;HPM_P2
2022/03/02 00:00:23;;;;;;;22.10;14.70;;;2.50;92.90;;;;;;4978723;28;20710;-76
2022/03/02 00:02:49;;;;;;;22.93;15.37;;;2.40;93.00;;;;;;4982793;28;20245;-75
2022/03/02 00:05:16;;;;;;;22.53;15.27;;;2.40;93.10;;;;;;4998491;28;20243;-76
2022/03/02 00:07:43;;;;;;;23.10;15.30;;;2.40;93.20;;;;;;4992669;28;21323;-76
2022/03/02 00:10:10;;;;;;;22.37;14.90;;;2.30;93.20;;;;;;4996033;28;20263;-76
2022/03/02 00:12:37;;;;;;;23.87;15.40;;;2.30;93.20;;;;;;4983235;28;20768;-77
2022/03/02 00:15:06;;;;;;;23.83;15.53;;;2.20;93.30;;;;;;4986212;28;20318;-76
2022/03/02 00:17:32;;;;;;;24.97;15.57;;;2.20;93.50;;;;;;4980264;28;21153;-75
2022/03/02 00:19:59;;;;;;;26.13;14.83;;;2.20;93.40;;;;;;4982890;28;20235;-76
2022/03/02 00:22:26;;;;;;;25.23;15.50;;;2.10;93.40;;;;;;4981541;28;20286;-75
2022/03/02 00:24:52;;;;;;;22.17;14.43;;;2.10;93.70;;;;;;4981163;28;20347;-76
2022/03/02 00:27:19;;;;;;;22.47;15.00;;;2.10;93.50;;;;;;4977573;28;20230;-76
2022/03/02 00:29:46;;;;;;;22.97;14.97;;;2.00;93.70;;;;;;4978058;28;20842;-76
2022/03/02 00:32:15;;;;;;;22.77;15.30;;;2.00;93.70;;;;;;4987041;28;20239;-76
2022/03/02 00:34:42;;;;;;;22.23;14.30;;;2.00;93.90;;;;;;4983179;28;20246;-74
2022/03/02 00:37:09;;;;;;;21.17;13.73;;;2.00;93.90;;;;;;4982520;28;20239;-75
2022/03/02 00:39:35;;;;;;;23.70;15.27;;;2.00;94.00;;;;;;4987820;28;20227;-74
2022/03/02 00:42:02;;;;;;;23.70;15.70;;;2.00;94.20;;;;;;4982898;28;20242;-75
2022/03/02 00:44:29;;;;;;;26.83;16.50;;;2.00;94.20;;;;;;4976216;28;20228;-76
2022/03/02 00:46:56;;;;;;;22.23;15.33;;;2.00;94.20;;;;;;4979759;28;20596;-74
2022/03/02 00:49:27;;;;;;;23.97;14.87;;;1.90;94.10;;;;;;4982043;28;20692;-76
2022/03/02 00:51:55;;;;;;;23.50;15.23;;;1.90;94.00;;;;;;4981959;28;20697;-75
2022/03/02 00:54:21;;;;;;;24.43;15.03;;;1.90;94.10;;;;;;4976916;28;20230;-76
2022/03/02 00:56:48;;;;;;;24.83;15.50;;;1.90;94.00;;;;;;4986657;28;20241;-75
2022/03/02 00:59:15;;;;;;;23.67;15.47;;;1.90;94.00;;;;;;4973948;28;20231;-76
2022/03/02 01:01:42;;;;;;;20.97;14.00;;;1.80;94.00;;;;;;4983043;28;20233;-77
2022/03/02 01:04:08;;;;;;;24.70;15.87;;;1.80;94.00;;;;;;4984351;28;20230;-75
2022/03/02 01:06:37;;;;;;;22.53;14.80;;;1.80;94.10;;;;;;4976978;28;20230;-76
2022/03/02 01:09:05;;;;;;;23.80;15.90;;;1.80;94.10;;;;;;4987177;28;20673;-75
2022/03/02 01:11:32;;;;;;;21.53;14.10;;;1.80;94.30;;;;;;4984687;28;20575;-76
2022/03/02 01:13:58;;;;;;;23.03;15.37;;;1.70;94.30;;;;;;4958074;28;20241;-76
2022/03/02 01:16:25;;;;;;;23.53;14.33;;;1.70;94.40;;;;;;4967588;28;21077;-74
2022/03/02 01:18:52;;;;;;;23.33;15.27;;;1.70;94.50;;;;;;4966697;28;20383;-75
2022/03/02 01:21:19;;;;;;;23.93;15.50;;;1.70;94.50;;;;;;4979571;28;20832;-76
2022/03/02 01:23:47;;;;;;;22.33;15.23;;;1.70;94.60;;;;;;4982796;28;20794;-76
2022/03/02 01:26:14;;;;;;;26.37;15.80;;;1.70;94.60;;;;;;4987684;28;20255;-76
2022/03/02 01:28:40;;;;;;;22.53;14.27;;;1.70;94.70;;;;;;4979067;28;20726;-76
2022/03/02 01:31:07;;;;;;;23.37;15.83;;;1.70;94.70;;;;;;4981053;28;20226;-74
2022/03/02 01:33:34;;;;;;;23.80;15.60;;;1.70;94.70;;;;;;4986387;28;20228;-75
2022/03/02 01:36:01;;;;;;;25.23;15.37;;;1.70;94.70;;;;;;4989882;28;20226;-75
2022/03/02 01:38:27;;;;;;;24.47;15.70;;;1.70;94.60;;;;;;4985325;28;20243;-75
2022/03/02 01:40:55;;;;;;;22.67;15.23;;;1.70;94.60;;;;;;4987322;28;20745;-76
2022/03/02 01:43:22;;;;;;;22.30;15.00;;;1.70;94.60;;;;;;4975527;28;20237;-76
2022/03/02 01:45:49;;;;;;;23.50;15.23;;;1.70;94.50;;;;;;4985178;28;20240;-75
2022/03/02 01:48:15;;;;;;;22.83;14.40;;;1.70;94.50;;;;;;4982787;28;20891;-76
2022/03/02 01:50:42;;;;;;;23.53;15.17;;;1.70;94.50;;;;;;4985662;28;20732;-76
2022/03/02 01:53:09;;;;;;;25.70;16.07;;;1.60;94.40;;;;;;4977323;28;20897;-76
2022/03/02 01:55:36;;;;;;;22.40;15.03;;;1.60;94.40;;;;;;4978652;28;20247;-74
2022/03/02 01:58:05;;;;;;;20.10;14.37;;;1.60;94.40;;;;;;4976279;28;20240;-75
2022/03/02 02:00:32;;;;;;;23.37;14.93;;;1.60;94.40;;;;;;4977821;28;20569;-74
2022/03/02 02:03:00;;;;;;;21.43;14.30;;;1.70;94.50;;;;;;4986709;28;20324;-74
2022/03/02 02:05:27;;;;;;;24.17;15.47;;;1.70;94.70;;;;;;4981718;28;20234;-76
2022/03/02 02:07:53;;;;;;;22.80;14.67;;;1.70;94.50;;;;;;4982122;28;20237;-76
2022/03/02 02:10:20;;;;;;;23.17;14.83;;;1.70;94.50;;;;;;4993715;28;20234;-76
2022/03/02 02:12:47;;;;;;;22.53;14.83;;;1.70;94.60;;;;;;4975275;28;20300;-76
2022/03/02 02:15:15;;;;;;;20.47;14.50;;;1.70;94.50;;;;;;4983984;28;20228;-75
2022/03/02 02:17:42;;;;;;;22.27;14.87;;;1.70;94.30;;;;;;4985787;28;20238;-75
2022/03/02 02:20:10;;;;;;;21.30;14.33;;;1.70;94.30;;;;;;4981681;28;20232;-75
2022/03/02 02:22:43;;;;;;;24.03;14.97;;;1.70;94.30;;;;;;4978499;28;20715;-76
2022/03/02 02:25:11;;;;;;;24.03;14.43;;;1.80;94.30;;;;;;4987884;28;20226;-75
2022/03/02 02:27:39;;;;;;;20.77;13.73;;;1.80;94.30;;;;;;4985138;28;20308;-74
2022/03/02 02:30:07;;;;;;;23.27;14.03;;;1.80;94.20;;;;;;4979875;28;20231;-76
2022/03/02 02:32:36;;;;;;;26.77;16.33;;;1.70;94.30;;;;;;4975568;28;20238;-75
2022/03/02 02:35:03;;;;;;;22.10;14.43;;;1.70;94.30;;;;;;4978952;28;20336;-75
2022/03/02 02:37:31;;;;;;;22.97;14.30;;;1.70;94.20;;;;;;4982522;28;20897;-75
2022/03/02 02:40:02;;;;;;;19.60;13.57;;;1.70;94.10;;;;;;4978550;28;20234;-75
2022/03/02 02:42:29;;;;;;;22.03;15.30;;;1.70;94.30;;;;;;4972248;28;20235;-74
2022/03/02 02:44:56;;;;;;;21.90;14.17;;;1.70;94.50;;;;;;4980694;28;20603;-76
2022/03/02 02:47:23;;;;;;;24.20;15.13;;;1.70;94.30;;;;;;4992421;28;20226;-74
2022/03/02 02:49:50;;;;;;;22.53;15.23;;;1.60;94.30;;;;;;4983010;28;20253;-75
2022/03/02 02:52:16;;;;;;;24.60;15.23;;;1.60;94.20;;;;;;4981476;28;20696;-75
2022/03/02 02:54:43;;;;;;;21.90;14.60;;;1.60;94.10;;;;;;4995823;28;20229;-76
2022/03/02 02:57:11;;;;;;;24.73;14.60;;;1.60;94.20;;;;;;4990283;28;20223;-75
2022/03/02 02:59:38;;;;;;;20.80;14.17;;;1.60;94.20;;;;;;4975622;28;20734;-76
2022/03/02 03:02:05;;;;;;;24.27;15.10;;;1.50;94.20;;;;;;4979888;28;20727;-76
2022/03/02 03:04:32;;;;;;;20.80;14.37;;;1.50;94.20;;;;;;4979729;28;20250;-74
2022/03/02 03:06:59;;;;;;;24.03;15.40;;;1.50;94.20;;;;;;4970099;28;20242;-75
2022/03/02 03:09:25;;;;;;;25.67;15.23;;;1.50;94.30;;;;;;4984860;28;20249;-75
2022/03/02 03:11:52;;;;;;;22.63;15.07;;;1.40;94.30;;;;;;4982645;28;20240;-74
2022/03/02 03:14:20;;;;;;;23.67;14.93;;;1.40;94.40;;;;;;4973381;28;20229;-75
2022/03/02 03:16:47;;;;;;;22.07;14.97;;;1.40;94.50;;;;;;4979111;28;20236;-75
2022/03/02 03:19:13;;;;;;;24.63;14.37;;;1.40;94.40;;;;;;4978341;28;20227;-75
2022/03/02 03:21:40;;;;;;;21.90;14.47;;;1.40;94.30;;;;;;4983137;28;20233;-76
2022/03/02 03:24:07;;;;;;;22.77;13.93;;;1.30;94.40;;;;;;4979041;28;20228;-75
2022/03/02 03:26:33;;;;;;;22.70;14.90;;;1.30;94.40;;;;;;4977798;28;20897;-75
2022/03/02 03:29:00;;;;;;;21.50;14.77;;;1.30;94.50;;;;;;4972379;28;20335;-74
2022/03/02 03:31:28;;;;;;;23.37;15.40;;;1.30;94.50;;;;;;4976550;28;20232;-74
2022/03/02 03:33:55;;;;;;;21.37;14.50;;;1.30;94.70;;;;;;4972132;28;20226;-75
2022/03/02 03:36:21;;;;;;;22.57;14.17;;;1.30;94.70;;;;;;4978697;28;20248;-75
2022/03/02 03:38:48;;;;;;;21.53;14.47;;;1.20;94.70;;;;;;4987677;28;20334;-75
2022/03/02 03:41:15;;;;;;;24.33;14.53;;;1.20;94.70;;;;;;4979008;28;20705;-75
2022/03/02 03:43:43;;;;;;;23.07;15.17;;;1.20;94.70;;;;;;4974651;28;20244;-75
2022/03/02 03:46:10;;;;;;;20.90;13.97;;;1.20;94.60;;;;;;4979013;28;20329;-75
2022/03/02 03:48:38;;;;;;;23.23;13.27;;;1.20;94.60;;;;;;4976144;28;20239;-75
2022/03/02 03:51:06;;;;;;;22.53;14.13;;;1.20;94.70;;;;;;4983051;28;20380;-74
2022/03/02 03:53:33;;;;;;;25.33;16.13;;;1.20;94.80;;;;;;4983072;28;20296;-74
2022/03/02 03:56:00;;;;;;;22.83;15.00;;;1.20;94.90;;;;;;4980101;28;20257;-75
2022/03/02 03:58:26;;;;;;;22.80;15.03;;;1.10;94.90;;;;;;4975002;28;20235;-75
2022/03/02 04:00:53;;;;;;;22.33;15.53;;;1.10;94.90;;;;;;4985656;28;20313;-75
2022/03/02 04:03:20;;;;;;;25.67;15.70;;;1.10;95.40;;;;;;4980550;28;20234;-75
2022/03/02 04:05:48;;;;;;;23.63;14.70;;;1.10;95.10;;;;;;4982618;28;20279;-75
2022/03/02 04:08:15;;;;;;;24.77;15.13;;;1.10;95.10;;;;;;4984258;28;20601;-76
2022/03/02 04:10:42;;;;;;;22.60;14.37;;;1.10;95.10;;;;;;4976449;28;20754;-76
2022/03/02 04:13:09;;;;;;;20.40;13.83;;;1.10;95.00;;;;;;4970511;28;20946;-76
2022/03/02 04:15:37;;;;;;;21.67;14.73;;;1.10;94.90;;;;;;4978623;28;20229;-76
2022/03/02 04:18:06;;;;;;;22.07;15.50;;;1.10;95.00;;;;;;4974870;28;20253;-75
2022/03/02 04:20:32;;;;;;;21.93;14.87;;;1.00;95.00;;;;;;4988024;28;20297;-75
2022/03/02 04:23:01;;;;;;;22.80;14.40;;;1.00;95.10;;;;;;4978561;28;20322;-76
2022/03/02 04:25:28;;;;;;;22.00;15.33;;;1.00;95.10;;;;;;4974976;28;20706;-76
2022/03/02 04:27:54;;;;;;;21.13;15.07;;;1.00;95.10;;;;;;4974382;28;20299;-75
2022/03/02 04:30:21;;;;;;;22.57;14.60;;;1.00;95.10;;;;;;4975414;28;20218;-75
2022/03/02 04:32:48;;;;;;;23.03;15.00;;;1.00;95.10;;;;;;4979592;28;20237;-73
2022/03/02 04:35:15;;;;;;;23.93;15.43;;;1.00;95.10;;;;;;4980749;28;20233;-75
2022/03/02 04:37:42;;;;;;;27.27;15.93;;;0.90;95.00;;;;;;4980507;28;20351;-74
2022/03/02 04:40:12;;;;;;;20.77;13.57;;;0.90;95.00;;;;;;4977089;28;20236;-75
2022/03/02 04:42:39;;;;;;;22.00;14.63;;;0.90;95.20;;;;;;4978656;28;20226;-75
2022/03/02 04:45:06;;;;;;;20.43;14.07;;;0.80;95.20;;;;;;4970967;28;20230;-75
2022/03/02 04:47:33;;;;;;;20.73;14.47;;;0.80;95.30;;;;;;4973286;28;20219;-76
2022/03/02 04:50:00;;;;;;;21.37;14.17;;;0.80;95.40;;;;;;4981910;28;20233;-75
2022/03/02 04:52:27;;;;;;;21.33;14.77;;;0.70;95.40;;;;;;4977509;28;20238;-74
2022/03/02 04:55:09;;;;;;;21.90;14.43;;;0.70;95.50;;;;;;4986892;28;20230;-76
2022/03/02 04:57:40;;;;;;;23.47;15.00;;;0.60;95.50;;;;;;4968619;28;21058;-76
2022/03/02 05:00:10;;;;;;;24.40;16.10;;;0.60;95.60;;;;;;4980292;28;20226;-76
2022/03/02 05:02:37;;;;;;;26.47;16.43;;;0.50;95.60;;;;;;4981159;28;20233;-76
2022/03/02 05:05:06;;;;;;;22.50;14.63;;;0.50;95.50;;;;;;4984365;28;20305;-76
2022/03/02 05:07:34;;;;;;;23.83;15.50;;;0.40;95.60;;;;;;4980467;28;20233;-75
2022/03/02 05:10:00;;;;;;;27.17;16.57;;;0.40;95.70;;;;;;4987843;28;20820;-75
2022/03/02 05:12:27;;;;;;;25.97;15.67;;;0.30;95.70;;;;;;4976012;28;20840;-74
2022/03/02 05:14:56;;;;;;;24.63;16.10;;;0.30;95.80;;;;;;4975629;28;20310;-75
2022/03/02 05:17:23;;;;;;;22.77;14.93;;;0.20;95.90;;;;;;4983712;28;20731;-75
2022/03/02 05:19:49;;;;;;;24.67;15.70;;;0.20;95.90;;;;;;4983188;28;20710;-75
2022/03/02 05:22:16;;;;;;;22.53;15.27;;;0.10;96.00;;;;;;4978997;28;20234;-77
2022/03/02 05:24:43;;;;;;;22.60;14.63;;;0.10;96.00;;;;;;4986619;28;20548;-78
2022/03/02 05:27:10;;;;;;;27.60;16.03;;;0.10;96.00;;;;;;4981494;28;20238;-78
2022/03/02 05:29:37;;;;;;;24.57;15.73;;;0.10;96.00;;;;;;4983536;28;20234;-78
2022/03/02 05:32:06;;;;;;;22.63;14.60;;;0.10;95.90;;;;;;4976127;28;20254;-76
2022/03/02 05:34:33;;;;;;;25.80;15.50;;;0.00;96.10;;;;;;4984456;28;20233;-77
2022/03/02 05:37:00;;;;;;;21.23;14.27;;;0.00;96.20;;;;;;4985224;28;20238;-78
2022/03/02 05:39:27;;;;;;;24.47;15.67;;;0.00;96.40;;;;;;4977137;28;20234;-78
2022/03/02 05:41:54;;;;;;;22.60;14.93;;;0.00;96.40;;;;;;4983488;28;20226;-79
2022/03/02 05:44:20;;;;;;;21.50;15.07;;;0.10;96.50;;;;;;4978233;28;20235;-78
2022/03/02 05:46:47;;;;;;;25.20;15.67;;;0.00;96.50;;;;;;4979459;28;20231;-78
2022/03/02 05:49:16;;;;;;;24.97;14.73;;;0.10;96.50;;;;;;4984477;28;20232;-78
2022/03/02 05:51:43;;;;;;;28.40;16.90;;;0.10;96.40;;;;;;4982738;28;20244;-79
2022/03/02 05:54:11;;;;;;;24.73;15.20;;;0.10;96.20;;;;;;4986383;28;20229;-78
2022/03/02 05:56:39;;;;;;;25.43;15.43;;;0.10;96.20;;;;;;4975278;28;20241;-78
2022/03/02 05:59:06;;;;;;;22.73;14.13;;;0.10;96.30;;;;;;4973365;28;20238;-79
2022/03/02 06:01:34;;;;;;;23.43;14.60;;;0.10;96.20;;;;;;4977628;28;20235;-78
2022/03/02 06:04:01;;;;;;;27.40;16.33;;;0.20;96.10;;;;;;4973743;28;20223;-79
2022/03/02 06:06:31;;;;;;;22.60;14.90;;;0.10;96.10;;;;;;4983601;28;20228;-79
2022/03/02 06:08:57;;;;;;;27.00;15.90;;;0.10;96.00;;;;;;4980007;28;20319;-81
2022/03/02 06:11:24;;;;;;;22.97;14.57;;;0.10;95.90;;;;;;4983818;28;20626;-79
2022/03/02 06:13:52;;;;;;;25.17;15.23;;;0.10;96.00;;;;;;4980492;28;20237;-79
2022/03/02 06:16:19;;;;;;;21.60;14.47;;;0.10;96.10;;;;;;4985165;28;20788;-78
2022/03/02 06:18:46;;;;;;;24.30;15.70;;;0.00;96.10;;;;;;4976791;28;20277;-79
2022/03/02 06:21:17;;;;;;;24.20;16.40;;;0.10;96.20;;;;;;4984286;28;20257;-79
2022/03/02 06:23:45;;;;;;;29.73;16.67;;;0.00;96.30;;;;;;4981048;28;20230;-82
2022/03/02 06:26:12;;;;;;;24.43;15.87;;;0.00;96.30;;;;;;4982397;28;20234;-77
2022/03/02 06:28:39;;;;;;;26.23;15.60;;;0.00;96.30;;;;;;4976801;28;20234;-78
2022/03/02 06:31:06;;;;;;;22.97;14.90;;;0.00;96.30;;;;;;4987637;28;20236;-79
2022/03/02 06:33:32;;;;;;;22.33;14.70;;;0.00;96.20;;;;;;4980294;28;20230;-78
2022/03/02 06:35:59;;;;;;;23.00;14.73;;;0.00;96.30;;;;;;4982023;28;20242;-80
2022/03/02 06:38:27;;;;;;;23.17;15.00;;;0.10;96.70;;;;;;4986495;28;20238;-79
2022/03/02 06:41:03;;;;;;;24.13;14.77;;;0.10;96.30;;;;;;4988198;28;20224;-78
2022/03/02 06:43:35;;;;;;;22.33;14.70;;;0.10;96.50;;;;;;4980001;28;20677;-79
2022/03/02 06:46:07;;;;;;;24.40;15.50;;;0.10;96.40;;;;;;4990676;28;20249;-79
2022/03/02 06:48:38;;;;;;;26.07;15.97;;;0.10;96.30;;;;;;4988189;28;20383;-78
2022/03/02 06:51:07;;;;;;;23.50;15.13;;;0.20;96.30;;;;;;4989018;28;20232;-79
2022/03/02 06:53:36;;;;;;;23.73;15.10;;;0.20;96.30;;;;;;4988096;28;20244;-78
2022/03/02 06:56:06;;;;;;;27.90;15.53;;;0.20;96.40;;;;;;4983443;28;20325;-78
2022/03/02 06:58:40;;;;;;;26.13;15.60;;;0.30;96.60;;;;;;4984691;28;20240;-78
2022/03/02 07:01:10;;;;;;;21.93;14.67;;;0.40;96.60;;;;;;4989654;28;20247;-78
2022/03/02 07:03:45;;;;;;;24.00;14.33;;;0.50;96.60;;;;;;4988851;28;20727;-79
2022/03/02 07:06:13;;;;;;;26.70;15.07;;;0.60;96.60;;;;;;4980899;28;20277;-79
2022/03/02 07:08:44;;;;;;;22.60;14.57;;;0.70;96.60;;;;;;4983944;28;20252;-79
2022/03/02 07:11:12;;;;;;;22.00;14.37;;;1.00;96.90;;;;;;4985329;28;20241;-79
2022/03/02 07:13:39;;;;;;;21.50;14.50;;;1.10;96.30;;;;;;4979623;28;20229;-79
2022/03/02 07:16:06;;;;;;;23.33;15.20;;;1.20;96.20;;;;;;4987220;28;20606;-78
2022/03/02 07:18:34;;;;;;;24.40;15.03;;;1.40;96.10;;;;;;4985137;28;20227;-79
2022/03/02 07:21:07;;;;;;;27.03;14.87;;;1.50;95.70;;;;;;4977158;28;20222;-79
2022/03/02 07:23:35;;;;;;;23.03;14.53;;;1.60;95.50;;;;;;4984430;28;20234;-79
2022/03/02 07:26:02;;;;;;;25.60;14.00;;;1.70;95.50;;;;;;4981963;28;20218;-78
2022/03/02 07:28:31;;;;;;;23.97;15.00;;;1.70;95.50;;;;;;4987448;28;20678;-78
2022/03/02 07:31:00;;;;;;;21.80;14.17;;;1.70;95.40;;;;;;4980977;28;20654;-79
2022/03/02 07:33:30;;;;;;;25.03;15.00;;;1.70;95.40;;;;;;4982407;28;20244;-79
2022/03/02 07:35:58;;;;;;;23.90;14.40;;;1.80;95.50;;;;;;4981867;28;20231;-78
2022/03/02 07:38:27;;;;;;;24.90;15.43;;;1.90;95.40;;;;;;4981908;28;20240;-80
2022/03/02 07:40:54;;;;;;;24.20;15.30;;;2.10;95.50;;;;;;4978173;28;20280;-79
2022/03/02 07:43:22;;;;;;;25.13;16.77;;;2.20;95.60;;;;;;4981695;28;20679;-80
2022/03/02 07:45:51;;;;;;;26.77;18.67;;;2.40;95.10;;;;;;4991788;28;20326;-79
2022/03/02 07:48:18;;;;;;;28.50;17.57;;;2.60;94.80;;;;;;4982272;28;20249;-74
2022/03/02 07:50:47;;;;;;;27.57;17.03;;;2.70;94.80;;;;;;4981391;28;20232;-74
2022/03/02 07:53:19;;;;;;;22.63;16.20;;;2.90;94.30;;;;;;4975832;28;20231;-75
2022/03/02 07:55:47;;;;;;;24.43;15.20;;;2.90;94.00;;;;;;4979220;28;20233;-75
2022/03/02 07:58:16;;;;;;;23.30;14.27;;;3.00;93.90;;;;;;4976118;28;20861;-75
2022/03/02 08:00:43;;;;;;;20.93;14.37;;;3.10;94.60;;;;;;4976378;28;20224;-75
2022/03/02 08:03:11;;;;;;;21.63;14.37;;;3.20;94.40;;;;;;4978974;28;20243;-75
2022/03/02 08:05:39;;;;;;;19.53;13.57;;;3.40;94.10;;;;;;4982789;28;20582;-75
2022/03/02 08:08:08;;;;;;;21.03;14.50;;;3.60;94.10;;;;;;4975203;28;20232;-75
2022/03/02 08:10:35;;;;;;;20.53;14.57;;;3.70;93.70;;;;;;4982397;28;20227;-75
2022/03/02 08:13:01;;;;;;;19.20;13.13;;;3.90;93.80;;;;;;4978444;28;20244;-75
2022/03/02 08:15:29;;;;;;;24.13;14.17;;;4.10;93.80;;;;;;4981771;28;20569;-74
2022/03/02 08:17:56;;;;;;;21.60;13.37;;;4.20;93.50;;;;;;4975392;28;20226;-75
2022/03/02 08:20:25;;;;;;;23.17;14.17;;;4.40;93.20;;;;;;4974722;28;20230;-75
2022/03/02 08:22:55;;;;;;;18.97;13.43;;;4.50;92.80;;;;;;4977690;28;20246;-73
2022/03/02 08:25:25;;;;;;;18.97;13.17;;;4.60;92.50;;;;;;4979521;28;20250;-74
2022/03/02 08:27:53;;;;;;;18.40;13.73;;;4.60;92.60;;;;;;4970339;28;20231;-74
2022/03/02 08:30:20;;;;;;;22.17;13.13;;;4.70;91.90;;;;;;4984629;28;20240;-75
2022/03/02 08:32:48;;;;;;;18.10;12.80;;;4.70;92.30;;;;;;4981458;28;20256;-75
2022/03/02 08:35:18;;;;;;;19.57;13.90;;;4.80;92.50;;;;;;4982146;28;20797;-75
2022/03/02 08:37:46;;;;;;;19.20;13.20;;;5.00;92.30;;;;;;4986551;28;20236;-75
2022/03/02 08:40:14;;;;;;;19.97;12.97;;;5.10;92.00;;;;;;4980156;28;20232;-75
2022/03/02 08:42:41;;;;;;;19.80;12.27;;;5.30;91.80;;;;;;4979499;28;20255;-76
2022/03/02 08:45:09;;;;;;;19.23;12.70;;;5.50;91.80;;;;;;4975259;28;20291;-75
2022/03/02 08:47:36;;;;;;;16.87;11.97;;;5.80;92.10;;;;;;4977928;28;20241;-75
2022/03/02 08:50:03;;;;;;;18.17;12.80;;;6.10;91.40;;;;;;4986593;28;20579;-75
2022/03/02 08:52:32;;;;;;;15.83;11.50;;;6.50;90.90;;;;;;4977825;28;20242;-75
2022/03/02 08:55:02;;;;;;;17.00;10.87;;;7.00;91.00;;;;;;4981732;28;20236;-74
2022/03/02 08:57:31;;;;;;;16.77;10.93;;;7.40;90.60;;;;;;4976372;28;20236;-74
2022/03/02 09:00:00;;;;;;;15.13;11.07;;;7.90;88.50;;;;;;4957933;28;20232;-75
2022/03/02 09:02:29;;;;;;;14.17;11.90;;;8.30;86.30;;;;;;4959478;28;20248;-74
2022/03/02 09:05:00;;;;;;;17.47;11.87;;;8.70;86.60;;;;;;4969331;28;20220;-75
2022/03/02 09:07:26;;;;;;;16.30;11.57;;;9.10;86.10;;;;;;4970505;28;20730;-76
2022/03/02 09:09:53;;;;;;;15.13;11.70;;;9.50;84.00;;;;;;4975856;28;20238;-75
2022/03/02 09:12:23;;;;;;;16.13;11.50;;;9.70;84.90;;;;;;4974311;28;20292;-74
2022/03/02 09:14:50;;;;;;;17.27;12.17;;;10.10;83.00;;;;;;4978934;28;20906;-75
2022/03/02 09:17:18;;;;;;;15.77;13.00;;;10.30;82.90;;;;;;4976910;28;20231;-74
2022/03/02 09:19:45;;;;;;;17.67;13.60;;;10.60;82.60;;;;;;4979372;28;20916;-75
2022/03/02 09:22:12;;;;;;;18.60;12.97;;;10.70;82.10;;;;;;4984649;28;20225;-74
2022/03/02 09:24:42;;;;;;;18.13;13.33;;;10.90;81.00;;;;;;4985059;28;20231;-75
2022/03/02 09:27:11;;;;;;;21.37;13.97;;;11.10;80.80;;;;;;4982257;28;20256;-75
2022/03/02 09:29:44;;;;;;;22.80;15.93;;;11.20;80.20;;;;;;4972134;28;20230;-75
2022/03/02 09:32:12;;;;;;;29.50;18.47;;;11.40;79.60;;;;;;4988873;28;20226;-75
2022/03/02 09:34:42;;;;;;;30.13;19.10;;;11.60;79.70;;;;;;4978170;28;20335;-76
2022/03/02 09:37:10;;;;;;;27.30;19.07;;;11.80;77.40;;;;;;4978338;28;20307;-74
2022/03/02 09:39:37;;;;;;;25.30;17.67;;;12.10;77.60;;;;;;4979207;28;20238;-75
2022/03/02 09:42:06;;;;;;;26.63;18.07;;;12.20;76.90;;;;;;4984047;28;20230;-76
2022/03/02 09:44:40;;;;;;;23.23;16.60;;;12.30;76.50;;;;;;4980136;28;20291;-75
2022/03/02 09:47:09;;;;;;;21.80;16.60;;;12.50;76.70;;;;;;4987109;28;20797;-76
2022/03/02 09:49:37;;;;;;;22.17;16.63;;;12.70;76.60;;;;;;4984877;28;20691;-76
2022/03/02 09:52:06;;;;;;;18.30;14.33;;;12.90;75.30;;;;;;4987131;28;20303;-75
2022/03/02 09:54:36;;;;;;;19.57;13.83;;;13.10;75.40;;;;;;4984877;28;20239;-74
2022/03/02 09:57:04;;;;;;;17.33;13.13;;;13.20;74.30;;;;;;4984048;28;20240;-75
2022/03/02 09:59:35;;;;;;;20.00;13.50;;;13.20;74.20;;;;;;4980877;28;20236;-75
2022/03/02 10:02:03;;;;;;;16.43;12.63;;;13.30;73.30;;;;;;4980814;28;20288;-75
2022/03/02 10:04:35;;;;;;;16.70;12.57;;;13.40;74.10;;;;;;4985761;28;20240;-76
2022/03/02 10:09:52;;;;;;;15.17;11.40;;;13.90;71.70;;;;;;4975275;28;20295;-76
2022/03/02 10:12:20;;;;;;;16.97;12.30;;;14.10;71.60;;;;;;4983222;28;20236;-75
2022/03/02 10:14:49;;;;;;;17.30;13.43;;;14.30;69.90;;;;;;4979753;28;20251;-76
2022/03/02 10:17:19;;;;;;;16.13;12.97;;;14.50;70.60;;;;;;4973130;28;20236;-76
2022/03/02 10:19:54;;;;;;;17.77;13.63;;;14.70;70.80;;;;;;4987348;28;20229;-75
2022/03/02 10:22:37;;;;;;;16.37;13.20;;;14.90;69.40;;;;;;4992457;28;20302;-75
2022/03/02 10:25:08;;;;;;;16.60;12.20;;;15.10;68.90;;;;;;4980500;28;20234;-75
2022/03/02 10:27:40;;;;;;;16.63;11.83;;;15.40;68.40;;;;;;4977097;28;20233;-76
2022/03/02 10:30:09;;;;;;;16.70;12.37;;;15.60;67.30;;;;;;4988914;28;20969;-75
2022/03/02 10:32:42;;;;;;;17.53;13.00;;;15.80;65.30;;;;;;4990093;28;20772;-75
2022/03/02 10:35:12;;;;;;;14.93;11.70;;;16.00;64.20;;;;;;4985775;28;20227;-76
2022/03/02 10:37:41;;;;;;;18.47;12.30;;;16.00;64.70;;;;;;4982181;28;20251;-76
2022/03/02 10:40:12;;;;;;;15.53;11.87;;;16.00;65.40;;;;;;4984250;28;20255;-76
2022/03/02 10:42:42;;;;;;;16.20;12.10;;;16.10;64.30;;;;;;4980134;28;20336;-77
2022/03/02 10:45:19;;;;;;;14.63;11.23;;;16.10;64.50;;;;;;4981771;28;20238;-76
2022/03/02 10:48:12;;;;;;;14.50;11.07;;;16.20;62.20;;;;;;4977974;28;20259;-75
2022/03/02 10:50:43;;;;;;;16.40;11.03;;;16.20;61.70;;;;;;4980697;28;20322;-76
2022/03/02 10:53:15;;;;;;;13.40;10.57;;;16.30;61.50;;;;;;4981446;28;20792;-75
2022/03/02 10:55:45;;;;;;;13.23;10.37;;;16.40;60.00;;;;;;4983011;28;20316;-75
2022/03/02 10:58:15;;;;;;;12.30;9.73;;;16.30;60.10;;;;;;4975780;28;20239;-76
2022/03/02 11:00:42;;;;;;;14.07;9.80;;;16.20;59.60;;;;;;4976106;28;20233;-76
2022/03/02 11:03:09;;;;;;;13.50;10.53;;;16.10;60.10;;;;;;4984377;28;20260;-76
2022/03/02 11:05:37;;;;;;;13.83;10.50;;;16.00;59.10;;;;;;4985330;28;20902;-77
2022/03/02 11:08:05;;;;;;;13.03;10.53;;;15.80;59.70;;;;;;4984112;28;20240;-77
2022/03/02 11:10:33;;;;;;;12.67;10.07;;;15.70;60.30;;;;;;4987340;28;20256;-74
2022/03/02 11:13:02;;;;;;;11.40;9.90;;;15.80;61.00;;;;;;4980045;28;20228;-75
2022/03/02 11:15:45;;;;;;;13.17;10.17;;;16.00;59.90;;;;;;4981372;28;20791;-75
2022/03/02 11:18:16;;;;;;;13.37;10.67;;;16.10;59.50;;;;;;4986142;28;20311;-76
2022/03/02 11:20:52;;;;;;;13.30;10.77;;;16.20;58.80;;;;;;4978347;28;20218;-76
2022/03/02 11:23:23;;;;;;;14.10;11.03;;;16.10;58.00;;;;;;4986534;28;20250;-77
2022/03/02 11:25:54;;;;;;;12.47;10.57;;;16.00;56.90;;;;;;4983214;28;20705;-76
2022/03/02 11:28:23;;;;;;;13.90;11.30;;;15.80;55.50;;;;;;4987340;28;20226;-76
2022/03/02 11:30:53;;;;;;;14.63;11.03;;;15.60;57.10;;;;;;4989136;28;20234;-76
2022/03/02 11:33:25;;;;;;;12.97;10.83;;;15.40;57.10;;;;;;4975883;28;20227;-77
2022/03/02 11:35:56;;;;;;;13.60;9.90;;;15.20;56.60;;;;;;4983056;28;20582;-75
2022/03/02 11:38:29;;;;;;;14.60;11.47;;;15.20;57.90;;;;;;4980730;28;20226;-77
2022/03/02 11:40:56;;;;;;;14.13;10.50;;;15.30;57.60;;;;;;4988739;28;20236;-78
2022/03/02 11:43:28;;;;;;;13.90;10.63;;;15.40;57.40;;;;;;4981227;28;20314;-78
2022/03/02 11:45:58;;;;;;;13.60;10.30;;;15.50;56.20;;;;;;4983736;28;20259;-78
2022/03/02 11:48:27;;;;;;;13.90;10.27;;;15.40;56.40;;;;;;4968938;28;20765;-79
2022/03/02 11:51:09;;;;;;;13.33;10.30;;;15.40;56.90;;;;;;4983625;28;20223;-79
2022/03/02 11:53:39;;;;;;;12.53;10.20;;;15.40;55.70;;;;;;4977330;28;20695;-79
2022/03/02 11:56:07;;;;;;;15.33;10.23;;;15.40;56.00;;;;;;4984483;28;20777;-79
2022/03/02 11:59:02;;;;;;;13.60;10.87;;;15.50;56.90;;;;;;4980352;28;20249;-78
2022/03/02 12:01:41;;;;;;;15.10;11.90;;;15.50;56.20;;;;;;4984834;28;20251;-79
2022/03/02 12:04:09;;;;;;;16.30;12.17;;;15.50;55.80;;;;;;4978381;28;20230;-76
2022/03/02 12:06:41;;;;;;;14.53;11.67;;;15.40;55.90;;;;;;4981818;28;20228;-76
2022/03/02 12:09:09;;;;;;;15.47;11.57;;;15.20;54.90;;;;;;4987039;28;20295;-78
2022/03/02 12:11:38;;;;;;;15.10;12.17;;;15.00;54.80;;;;;;4993646;28;20798;-78
2022/03/02 12:14:08;;;;;;;16.13;11.90;;;14.90;56.50;;;;;;4979455;28;20721;-78
2022/03/02 12:16:39;;;;;;;15.60;12.03;;;14.90;56.40;;;;;;4983749;28;20311;-78
2022/03/02 12:19:10;;;;;;;16.07;11.53;;;14.90;56.30;;;;;;4986933;28;20235;-77
2022/03/02 12:21:37;;;;;;;16.47;12.40;;;15.00;57.10;;;;;;4980331;28;20232;-78
2022/03/02 12:24:04;;;;;;;15.43;12.47;;;15.00;56.10;;;;;;4981161;28;20236;-78
2022/03/02 12:26:34;;;;;;;16.50;12.57;;;14.90;55.90;;;;;;4973887;28;20324;-78
2022/03/02 12:29:01;;;;;;;15.33;11.87;;;14.70;55.90;;;;;;4963652;28;20732;-78
2022/03/02 12:31:31;;;;;;;13.63;11.47;;;14.60;56.20;;;;;;4941557;28;20227;-78
2022/03/02 12:34:01;;;;;;;16.10;12.27;;;14.60;56.10;;;;;;4958397;28;20910;-78
2022/03/02 12:36:29;;;;;;;15.40;12.00;;;14.60;56.40;;;;;;4961697;28;20322;-78
2022/03/02 12:38:55;;;;;;;14.97;12.00;;;14.70;57.20;;;;;;4964050;28;20336;-78
2022/03/02 12:41:23;;;;;;;16.63;12.20;;;14.80;56.70;;;;;;4960767;28;20722;-78